sensor_id;sensor_type;location;lat;lon;timestamp;P1;durP1;ratioP1;P2;durP2;ratioP2
84023;SDS011;74109;45.636;25.582;2024-03-07T00:00:45;13.90;;;6.60;;
84023;SDS011;74109;45.636;25.582;2024-03-07T00:03:30;15.10;;;5.90;;
84023;SDS011;74109;45.636;25.582;2024-03-07T00:05:57;13.80;;;5.70;;
84023;SDS011;74109;45.636;25.582;2024-03-07T00:08:24;14.10;;;6.20;;
84023;SDS011;74109;45.636;25.582;2024-03-07T00:10:50;13.40;;;5.10;;
84023;SDS011;74109;45.636;25.582;2024-03-07T00:13:17;13.10;;;5.20;;
84023;SDS011;74109;45.636;25.582;2024-03-07T00:15:44;13.40;;;6.50;;
84023;SDS011;74109;45.636;25.582;2024-03-07T00:18:11;13.90;;;6.30;;
84023;SDS011;74109;45.636;25.582;2024-03-07T00:20:38;14.50;;;5.80;;
84023;SDS011;74109;45.636;25.582;2024-03-07T00:23:05;10.80;;;4.60;;
84023;SDS011;74109;45.636;25.582;2024-03-07T00:25:32;13.60;;;6.20;;
84023;SDS011;74109;45.636;25.582;2024-03-07T00:27:59;15.70;;;6.00;;
84023;SDS011;74109;45.636;25.582;2024-03-07T00:30:29;18.80;;;6.80;;
84023;SDS011;74109;45.636;25.582;2024-03-07T00:32:56;15.50;;;6.10;;
84023;SDS011;74109;45.636;25.582;2024-03-07T00:35:24;15.30;;;7.00;;
84023;SDS011;74109;45.636;25.582;2024-03-07T00:37:51;15.50;;;7.50;;
84023;SDS011;74109;45.636;25.582;2024-03-07T00:40:18;18.70;;;7.30;;
84023;SDS011;74109;45.636;25.582;2024-03-07T00:42:45;11.80;;;5.40;;
84023;SDS011;74109;45.636;25.582;2024-03-07T00:45:12;12.00;;;5.70;;
84023;SDS011;74109;45.636;25.582;2024-03-07T00:47:39;14.70;;;5.80;;
84023;SDS011;74109;45.636;25.582;2024-03-07T00:50:06;16.20;;;6.50;;
84023;SDS011;74109;45.636;25.582;2024-03-07T00:52:35;19.50;;;7.10;;
84023;SDS011;74109;45.636;25.582;2024-03-07T00:55:02;16.10;;;6.70;;
84023;SDS011;74109;45.636;25.582;2024-03-07T00:57:29;11.30;;;5.90;;
84023;SDS011;74109;45.636;25.582;2024-03-07T00:59:56;13.50;;;5.60;;
84023;SDS011;74109;45.636;25.582;2024-03-07T01:02:22;18.50;;;7.10;;
84023;SDS011;74109;45.636;25.582;2024-03-07T01:04:49;22.40;;;7.60;;
84023;SDS011;74109;45.636;25.582;2024-03-07T01:07:20;18.10;;;7.30;;
84023;SDS011;74109;45.636;25.582;2024-03-07T01:09:48;14.30;;;6.40;;
84023;SDS011;74109;45.636;25.582;2024-03-07T01:12:15;20.10;;;7.50;;
84023;SDS011;74109;45.636;25.582;2024-03-07T01:14:42;15.30;;;7.30;;
84023;SDS011;74109;45.636;25.582;2024-03-07T01:17:12;18.20;;;7.70;;
84023;SDS011;74109;45.636;25.582;2024-03-07T01:19:39;19.90;;;7.10;;
84023;SDS011;74109;45.636;25.582;2024-03-07T01:22:08;17.40;;;6.70;;
84023;SDS011;74109;45.636;25.582;2024-03-07T01:24:35;22.70;;;9.00;;
84023;SDS011;74109;45.636;25.582;2024-03-07T01:27:02;23.20;;;9.90;;
84023;SDS011;74109;45.636;25.582;2024-03-07T01:29:29;19.70;;;9.30;;
84023;SDS011;74109;45.636;25.582;2024-03-07T01:31:56;19.60;;;8.90;;
84023;SDS011;74109;45.636;25.582;2024-03-07T01:34:23;22.00;;;9.20;;
84023;SDS011;74109;45.636;25.582;2024-03-07T01:36:50;25.30;;;10.30;;
84023;SDS011;74109;45.636;25.582;2024-03-07T01:39:17;24.10;;;10.20;;
84023;SDS011;74109;45.636;25.582;2024-03-07T01:41:44;17.40;;;7.40;;
84023;SDS011;74109;45.636;25.582;2024-03-07T01:44:11;14.20;;;6.60;;
84023;SDS011;74109;45.636;25.582;2024-03-07T01:46:38;17.90;;;7.40;;
84023;SDS011;74109;45.636;25.582;2024-03-07T01:49:04;18.40;;;7.30;;
84023;SDS011;74109;45.636;25.582;2024-03-07T01:51:33;18.20;;;7.20;;
84023;SDS011;74109;45.636;25.582;2024-03-07T01:54:02;14.10;;;5.50;;
84023;SDS011;74109;45.636;25.582;2024-03-07T01:56:30;12.10;;;5.40;;
84023;SDS011;74109;45.636;25.582;2024-03-07T01:58:57;14.70;;;6.60;;
84023;SDS011;74109;45.636;25.582;2024-03-07T02:01:27;17.20;;;6.70;;
84023;SDS011;74109;45.636;25.582;2024-03-07T02:03:54;12.60;;;6.70;;
84023;SDS011;74109;45.636;25.582;2024-03-07T02:06:21;14.00;;;6.20;;
84023;SDS011;74109;45.636;25.582;2024-03-07T02:08:49;10.60;;;5.10;;
84023;SDS011;74109;45.636;25.582;2024-03-07T02:11:16;18.10;;;7.20;;
84023;SDS011;74109;45.636;25.582;2024-03-07T02:13:44;20.60;;;7.50;;
84023;SDS011;74109;45.636;25.582;2024-03-07T02:16:11;22.20;;;8.50;;
84023;SDS011;74109;45.636;25.582;2024-03-07T02:18:37;17.20;;;7.10;;
84023;SDS011;74109;45.636;25.582;2024-03-07T02:21:08;13.50;;;5.70;;
84023;SDS011;74109;45.636;25.582;2024-03-07T02:23:37;11.40;;;5.30;;
84023;SDS011;74109;45.636;25.582;2024-03-07T02:26:04;16.00;;;6.30;;
84023;SDS011;74109;45.636;25.582;2024-03-07T02:28:31;14.40;;;5.60;;
84023;SDS011;74109;45.636;25.582;2024-03-07T02:30:58;16.50;;;6.40;;
84023;SDS011;74109;45.636;25.582;2024-03-07T02:33:25;13.00;;;5.40;;
84023;SDS011;74109;45.636;25.582;2024-03-07T02:35:52;15.30;;;6.20;;
84023;SDS011;74109;45.636;25.582;2024-03-07T02:38:19;15.00;;;6.70;;
84023;SDS011;74109;45.636;25.582;2024-03-07T02:40:46;13.30;;;5.70;;
84023;SDS011;74109;45.636;25.582;2024-03-07T02:43:13;18.80;;;6.50;;
84023;SDS011;74109;45.636;25.582;2024-03-07T02:45:42;18.00;;;7.30;;
84023;SDS011;74109;45.636;25.582;2024-03-07T02:48:08;15.10;;;5.60;;
84023;SDS011;74109;45.636;25.582;2024-03-07T02:50:36;16.00;;;8.10;;
84023;SDS011;74109;45.636;25.582;2024-03-07T02:53:08;12.80;;;5.80;;
84023;SDS011;74109;45.636;25.582;2024-03-07T02:55:35;15.10;;;7.40;;
84023;SDS011;74109;45.636;25.582;2024-03-07T02:58:01;18.20;;;7.10;;
84023;SDS011;74109;45.636;25.582;2024-03-07T03:00:29;13.70;;;5.40;;
84023;SDS011;74109;45.636;25.582;2024-03-07T03:02:58;12.40;;;5.00;;
84023;SDS011;74109;45.636;25.582;2024-03-07T03:05:25;11.50;;;5.70;;
84023;SDS011;74109;45.636;25.582;2024-03-07T03:07:52;14.30;;;6.30;;
84023;SDS011;74109;45.636;25.582;2024-03-07T03:10:20;18.20;;;7.50;;
84023;SDS011;74109;45.636;25.582;2024-03-07T03:12:55;16.50;;;6.70;;
84023;SDS011;74109;45.636;25.582;2024-03-07T03:15:25;11.10;;;5.50;;
84023;SDS011;74109;45.636;25.582;2024-03-07T03:17:52;11.70;;;5.00;;
84023;SDS011;74109;45.636;25.582;2024-03-07T03:20:19;14.90;;;5.90;;
84023;SDS011;74109;45.636;25.582;2024-03-07T03:22:52;15.50;;;6.40;;
84023;SDS011;74109;45.636;25.582;2024-03-07T03:25:40;12.40;;;5.20;;
84023;SDS011;74109;45.636;25.582;2024-03-07T03:28:07;14.90;;;6.50;;
84023;SDS011;74109;45.636;25.582;2024-03-07T03:30:40;15.20;;;6.20;;
84023;SDS011;74109;45.636;25.582;2024-03-07T03:33:07;18.90;;;8.10;;
84023;SDS011;74109;45.636;25.582;2024-03-07T03:35:35;19.60;;;9.00;;
84023;SDS011;74109;45.636;25.582;2024-03-07T03:38:02;15.80;;;7.60;;
84023;SDS011;74109;45.636;25.582;2024-03-07T03:40:29;18.60;;;8.00;;
84023;SDS011;74109;45.636;25.582;2024-03-07T03:42:56;11.80;;;5.10;;
84023;SDS011;74109;45.636;25.582;2024-03-07T03:45:23;15.00;;;7.00;;
84023;SDS011;74109;45.636;25.582;2024-03-07T03:47:51;15.30;;;6.70;;
84023;SDS011;74109;45.636;25.582;2024-03-07T03:50:19;10.90;;;5.90;;
84023;SDS011;74109;45.636;25.582;2024-03-07T03:52:47;15.30;;;5.20;;
84023;SDS011;74109;45.636;25.582;2024-03-07T03:55:13;12.50;;;6.10;;
84023;SDS011;74109;45.636;25.582;2024-03-07T03:57:42;12.70;;;6.30;;
84023;SDS011;74109;45.636;25.582;2024-03-07T04:00:10;14.00;;;6.20;;
84023;SDS011;74109;45.636;25.582;2024-03-07T04:02:40;17.90;;;6.30;;
84023;SDS011;74109;45.636;25.582;2024-03-07T04:05:11;14.00;;;6.30;;
84023;SDS011;74109;45.636;25.582;2024-03-07T04:07:40;14.60;;;6.40;;
84023;SDS011;74109;45.636;25.582;2024-03-07T04:10:10;12.10;;;5.30;;
84023;SDS011;74109;45.636;25.582;2024-03-07T04:12:39;10.40;;;4.00;;
84023;SDS011;74109;45.636;25.582;2024-03-07T04:15:11;13.30;;;6.20;;
84023;SDS011;74109;45.636;25.582;2024-03-07T04:17:40;17.00;;;7.60;;
84023;SDS011;74109;45.636;25.582;2024-03-07T04:20:07;15.70;;;7.30;;
84023;SDS011;74109;45.636;25.582;2024-03-07T04:22:37;17.50;;;8.80;;
84023;SDS011;74109;45.636;25.582;2024-03-07T04:25:07;16.30;;;8.40;;
84023;SDS011;74109;45.636;25.582;2024-03-07T04:27:36;15.40;;;7.00;;
84023;SDS011;74109;45.636;25.582;2024-03-07T04:30:03;20.50;;;7.60;;
84023;SDS011;74109;45.636;25.582;2024-03-07T04:32:32;13.20;;;4.50;;
84023;SDS011;74109;45.636;25.582;2024-03-07T04:35:00;12.70;;;5.30;;
84023;SDS011;74109;45.636;25.582;2024-03-07T04:37:30;14.30;;;5.60;;
84023;SDS011;74109;45.636;25.582;2024-03-07T04:39:57;17.70;;;6.30;;
84023;SDS011;74109;45.636;25.582;2024-03-07T04:42:24;13.50;;;5.90;;
84023;SDS011;74109;45.636;25.582;2024-03-07T04:44:50;15.60;;;5.20;;
84023;SDS011;74109;45.636;25.582;2024-03-07T04:47:18;14.10;;;6.00;;
84023;SDS011;74109;45.636;25.582;2024-03-07T04:49:45;15.70;;;5.70;;
84023;SDS011;74109;45.636;25.582;2024-03-07T04:52:12;16.10;;;7.10;;
84023;SDS011;74109;45.636;25.582;2024-03-07T04:54:38;13.50;;;6.20;;
84023;SDS011;74109;45.636;25.582;2024-03-07T04:57:05;11.40;;;5.50;;
84023;SDS011;74109;45.636;25.582;2024-03-07T04:59:32;20.40;;;8.10;;
84023;SDS011;74109;45.636;25.582;2024-03-07T05:01:59;21.10;;;8.90;;
84023;SDS011;74109;45.636;25.582;2024-03-07T05:04:26;17.30;;;7.40;;
84023;SDS011;74109;45.636;25.582;2024-03-07T05:06:55;25.40;;;9.00;;
84023;SDS011;74109;45.636;25.582;2024-03-07T05:09:23;16.00;;;7.40;;
84023;SDS011;74109;45.636;25.582;2024-03-07T05:11:52;14.10;;;6.70;;
84023;SDS011;74109;45.636;25.582;2024-03-07T05:14:19;13.70;;;5.90;;
84023;SDS011;74109;45.636;25.582;2024-03-07T05:16:47;13.00;;;5.00;;
84023;SDS011;74109;45.636;25.582;2024-03-07T05:19:31;15.90;;;7.00;;
84023;SDS011;74109;45.636;25.582;2024-03-07T05:21:59;10.90;;;4.60;;
84023;SDS011;74109;45.636;25.582;2024-03-07T05:24:26;18.20;;;6.40;;
84023;SDS011;74109;45.636;25.582;2024-03-07T05:26:53;10.80;;;4.40;;
84023;SDS011;74109;45.636;25.582;2024-03-07T05:29:20;12.80;;;6.50;;
84023;SDS011;74109;45.636;25.582;2024-03-07T05:31:48;14.60;;;7.00;;
84023;SDS011;74109;45.636;25.582;2024-03-07T05:34:15;9.90;;;5.10;;
84023;SDS011;74109;45.636;25.582;2024-03-07T05:36:45;10.40;;;4.70;;
84023;SDS011;74109;45.636;25.582;2024-03-07T05:39:14;13.60;;;5.90;;
84023;SDS011;74109;45.636;25.582;2024-03-07T05:41:44;15.00;;;6.00;;
84023;SDS011;74109;45.636;25.582;2024-03-07T05:44:13;15.20;;;5.80;;
84023;SDS011;74109;45.636;25.582;2024-03-07T05:46:51;14.50;;;6.10;;
84023;SDS011;74109;45.636;25.582;2024-03-07T05:49:19;13.00;;;5.60;;
84023;SDS011;74109;45.636;25.582;2024-03-07T05:51:52;12.70;;;6.60;;
84023;SDS011;74109;45.636;25.582;2024-03-07T05:54:20;16.00;;;6.60;;
84023;SDS011;74109;45.636;25.582;2024-03-07T05:56:58;16.80;;;6.00;;
84023;SDS011;74109;45.636;25.582;2024-03-07T06:04:30;12.70;;;5.80;;
84023;SDS011;74109;45.636;25.582;2024-03-07T06:07:21;13.20;;;5.80;;
84023;SDS011;74109;45.636;25.582;2024-03-07T06:18:15;16.20;;;6.80;;
84023;SDS011;74109;45.636;25.582;2024-03-07T06:21:34;12.80;;;6.60;;
84023;SDS011;74109;45.636;25.582;2024-03-07T06:25:38;13.50;;;7.10;;
84023;SDS011;74109;45.636;25.582;2024-03-07T06:29:12;14.30;;;6.70;;
84023;SDS011;74109;45.636;25.582;2024-03-07T06:32:16;18.50;;;7.80;;
84023;SDS011;74109;45.636;25.582;2024-03-07T06:34:49;16.40;;;8.10;;
84023;SDS011;74109;45.636;25.582;2024-03-07T06:37:38;15.20;;;7.30;;
84023;SDS011;74109;45.636;25.582;2024-03-07T06:40:38;19.70;;;9.60;;
84023;SDS011;74109;45.636;25.582;2024-03-07T06:43:09;18.20;;;9.00;;
84023;SDS011;74109;45.636;25.582;2024-03-07T06:45:41;13.70;;;6.80;;
84023;SDS011;74109;45.636;25.582;2024-03-07T06:48:17;17.10;;;9.20;;
84023;SDS011;74109;45.636;25.582;2024-03-07T06:50:49;19.60;;;9.30;;
84023;SDS011;74109;45.636;25.582;2024-03-07T06:53:18;17.00;;;7.30;;
84023;SDS011;74109;45.636;25.582;2024-03-07T06:56:01;19.20;;;9.10;;
84023;SDS011;74109;45.636;25.582;2024-03-07T07:02:10;15.00;;;7.90;;
84023;SDS011;74109;45.636;25.582;2024-03-07T07:05:15;17.90;;;9.30;;
84023;SDS011;74109;45.636;25.582;2024-03-07T07:08:08;14.30;;;7.20;;
84023;SDS011;74109;45.636;25.582;2024-03-07T07:11:35;15.00;;;7.90;;
84023;SDS011;74109;45.636;25.582;2024-03-07T07:14:34;19.90;;;9.80;;
84023;SDS011;74109;45.636;25.582;2024-03-07T07:17:20;20.40;;;9.60;;
84023;SDS011;74109;45.636;25.582;2024-03-07T07:19:57;19.20;;;7.90;;
84023;SDS011;74109;45.636;25.582;2024-03-07T07:22:46;19.70;;;9.20;;
84023;SDS011;74109;45.636;25.582;2024-03-07T07:25:34;19.80;;;10.00;;
84023;SDS011;74109;45.636;25.582;2024-03-07T07:28:06;22.20;;;9.40;;
84023;SDS011;74109;45.636;25.582;2024-03-07T07:30:35;17.50;;;9.00;;
84023;SDS011;74109;45.636;25.582;2024-03-07T07:33:07;20.50;;;10.00;;
84023;SDS011;74109;45.636;25.582;2024-03-07T07:35:41;20.00;;;9.70;;
84023;SDS011;74109;45.636;25.582;2024-03-07T07:39:13;18.40;;;9.60;;
84023;SDS011;74109;45.636;25.582;2024-03-07T07:42:08;22.30;;;11.20;;
84023;SDS011;74109;45.636;25.582;2024-03-07T07:44:48;20.70;;;9.30;;
84023;SDS011;74109;45.636;25.582;2024-03-07T07:48:07;23.60;;;12.10;;
84023;SDS011;74109;45.636;25.582;2024-03-07T07:51:19;19.30;;;10.80;;
84023;SDS011;74109;45.636;25.582;2024-03-07T07:54:12;18.80;;;9.80;;
84023;SDS011;74109;45.636;25.582;2024-03-07T07:57:29;14.90;;;8.20;;
84023;SDS011;74109;45.636;25.582;2024-03-07T08:00:30;15.90;;;8.70;;
84023;SDS011;74109;45.636;25.582;2024-03-07T08:03:22;16.90;;;9.10;;
84023;SDS011;74109;45.636;25.582;2024-03-07T08:06:09;16.40;;;9.30;;
84023;SDS011;74109;45.636;25.582;2024-03-07T08:08:43;15.70;;;9.30;;
84023;SDS011;74109;45.636;25.582;2024-03-07T08:11:28;20.60;;;10.70;;
84023;SDS011;74109;45.636;25.582;2024-03-07T08:14:10;18.40;;;9.00;;
84023;SDS011;74109;45.636;25.582;2024-03-07T08:16:53;21.80;;;9.80;;
84023;SDS011;74109;45.636;25.582;2024-03-07T08:19:35;14.10;;;8.80;;
84023;SDS011;74109;45.636;25.582;2024-03-07T08:22:38;14.40;;;9.10;;
84023;SDS011;74109;45.636;25.582;2024-03-07T08:25:35;15.80;;;9.40;;
84023;SDS011;74109;45.636;25.582;2024-03-07T08:28:11;15.10;;;9.00;;
84023;SDS011;74109;45.636;25.582;2024-03-07T08:30:51;17.80;;;8.80;;
84023;SDS011;74109;45.636;25.582;2024-03-07T08:33:23;16.50;;;8.90;;
84023;SDS011;74109;45.636;25.582;2024-03-07T08:36:00;20.30;;;9.80;;
84023;SDS011;74109;45.636;25.582;2024-03-07T08:38:31;18.90;;;9.00;;
84023;SDS011;74109;45.636;25.582;2024-03-07T08:41:02;15.10;;;8.00;;
84023;SDS011;74109;45.636;25.582;2024-03-07T08:43:33;18.20;;;7.80;;
84023;SDS011;74109;45.636;25.582;2024-03-07T08:46:04;16.10;;;9.00;;
84023;SDS011;74109;45.636;25.582;2024-03-07T08:48:35;21.20;;;8.80;;
84023;SDS011;74109;45.636;25.582;2024-03-07T08:51:15;18.00;;;9.20;;
84023;SDS011;74109;45.636;25.582;2024-03-07T08:54:07;15.10;;;8.00;;
84023;SDS011;74109;45.636;25.582;2024-03-07T08:57:02;20.40;;;10.20;;
84023;SDS011;74109;45.636;25.582;2024-03-07T09:00:23;15.90;;;9.70;;
84023;SDS011;74109;45.636;25.582;2024-03-07T09:04:45;18.20;;;10.30;;
84023;SDS011;74109;45.636;25.582;2024-03-07T09:08:33;14.30;;;8.00;;
84023;SDS011;74109;45.636;25.582;2024-03-07T09:12:20;15.70;;;8.80;;
84023;SDS011;74109;45.636;25.582;2024-03-07T09:20:42;13.10;;;7.20;;
84023;SDS011;74109;45.636;25.582;2024-03-07T09:24:07;17.30;;;7.90;;
84023;SDS011;74109;45.636;25.582;2024-03-07T09:27:46;12.40;;;7.00;;
84023;SDS011;74109;45.636;25.582;2024-03-07T09:31:17;16.30;;;7.80;;
84023;SDS011;74109;45.636;25.582;2024-03-07T09:45:04;11.80;;;6.50;;
84023;SDS011;74109;45.636;25.582;2024-03-07T09:48:22;11.80;;;6.60;;
84023;SDS011;74109;45.636;25.582;2024-03-07T09:51:19;14.20;;;7.10;;
84023;SDS011;74109;45.636;25.582;2024-03-07T09:58:50;16.50;;;7.00;;
84023;SDS011;74109;45.636;25.582;2024-03-07T10:02:33;12.00;;;7.00;;
84023;SDS011;74109;45.636;25.582;2024-03-07T10:07:04;14.20;;;6.60;;
84023;SDS011;74109;45.636;25.582;2024-03-07T10:25:49;12.20;;;6.00;;
84023;SDS011;74109;45.636;25.582;2024-03-07T10:29:38;11.30;;;6.00;;
84023;SDS011;74109;45.636;25.582;2024-03-07T10:33:36;11.20;;;6.40;;
84023;SDS011;74109;45.636;25.582;2024-03-07T10:37:18;11.50;;;6.50;;
84023;SDS011;74109;45.636;25.582;2024-03-07T10:40:56;13.00;;;5.40;;
84023;SDS011;74109;45.636;25.582;2024-03-07T10:44:36;10.70;;;4.90;;
84023;SDS011;74109;45.636;25.582;2024-03-07T10:48:39;10.10;;;5.10;;
84023;SDS011;74109;45.636;25.582;2024-03-07T10:51:46;8.70;;;4.20;;
84023;SDS011;74109;45.636;25.582;2024-03-07T10:57:58;9.30;;;3.70;;
84023;SDS011;74109;45.636;25.582;2024-03-07T11:01:11;8.80;;;5.00;;
84023;SDS011;74109;45.636;25.582;2024-03-07T11:04:54;8.50;;;4.00;;
84023;SDS011;74109;45.636;25.582;2024-03-07T11:07:52;6.40;;;3.30;;
84023;SDS011;74109;45.636;25.582;2024-03-07T11:10:55;6.80;;;3.70;;
84023;SDS011;74109;45.636;25.582;2024-03-07T11:13:24;6.10;;;3.60;;
84023;SDS011;74109;45.636;25.582;2024-03-07T11:15:56;4.60;;;2.90;;
84023;SDS011;74109;45.636;25.582;2024-03-07T11:26:11;7.80;;;3.80;;
84023;SDS011;74109;45.636;25.582;2024-03-07T11:28:44;6.20;;;3.20;;
84023;SDS011;74109;45.636;25.582;2024-03-07T11:31:25;7.10;;;4.40;;
84023;SDS011;74109;45.636;25.582;2024-03-07T11:34:38;7.70;;;4.10;;
84023;SDS011;74109;45.636;25.582;2024-03-07T11:38:00;7.30;;;3.20;;
84023;SDS011;74109;45.636;25.582;2024-03-07T11:43:01;6.20;;;3.00;;
84023;SDS011;74109;45.636;25.582;2024-03-07T11:45:34;7.30;;;4.00;;
84023;SDS011;74109;45.636;25.582;2024-03-07T11:48:06;7.80;;;3.30;;
84023;SDS011;74109;45.636;25.582;2024-03-07T11:50:39;5.70;;;3.20;;
84023;SDS011;74109;45.636;25.582;2024-03-07T11:53:12;7.90;;;3.70;;
84023;SDS011;74109;45.636;25.582;2024-03-07T11:55:41;6.10;;;2.90;;
84023;SDS011;74109;45.636;25.582;2024-03-07T11:58:14;8.60;;;3.00;;
84023;SDS011;74109;45.636;25.582;2024-03-07T12:00:50;7.40;;;3.40;;
84023;SDS011;74109;45.636;25.582;2024-03-07T12:03:21;9.10;;;4.10;;
84023;SDS011;74109;45.636;25.582;2024-03-07T12:05:51;7.70;;;3.10;;
84023;SDS011;74109;45.636;25.582;2024-03-07T12:08:26;8.10;;;4.00;;
84023;SDS011;74109;45.636;25.582;2024-03-07T12:10:56;6.70;;;3.10;;
84023;SDS011;74109;45.636;25.582;2024-03-07T12:13:26;8.10;;;2.90;;
84023;SDS011;74109;45.636;25.582;2024-03-07T12:15:56;6.30;;;3.10;;
84023;SDS011;74109;45.636;25.582;2024-03-07T12:18:27;8.00;;;3.10;;
84023;SDS011;74109;45.636;25.582;2024-03-07T12:20:56;5.90;;;3.50;;
84023;SDS011;74109;45.636;25.582;2024-03-07T12:23:34;7.10;;;3.10;;
84023;SDS011;74109;45.636;25.582;2024-03-07T12:26:09;6.40;;;3.10;;
84023;SDS011;74109;45.636;25.582;2024-03-07T12:28:42;7.90;;;3.00;;
84023;SDS011;74109;45.636;25.582;2024-03-07T12:31:12;12.50;;;4.20;;
84023;SDS011;74109;45.636;25.582;2024-03-07T12:33:45;5.30;;;2.70;;
84023;SDS011;74109;45.636;25.582;2024-03-07T12:36:20;7.40;;;4.20;;
84023;SDS011;74109;45.636;25.582;2024-03-07T12:38:54;6.70;;;3.30;;
84023;SDS011;74109;45.636;25.582;2024-03-07T12:41:24;6.70;;;3.20;;
84023;SDS011;74109;45.636;25.582;2024-03-07T12:43:53;6.50;;;2.10;;
84023;SDS011;74109;45.636;25.582;2024-03-07T12:46:22;6.40;;;2.90;;
84023;SDS011;74109;45.636;25.582;2024-03-07T12:48:50;7.50;;;3.90;;
84023;SDS011;74109;45.636;25.582;2024-03-07T12:51:19;8.90;;;3.10;;
84023;SDS011;74109;45.636;25.582;2024-03-07T12:53:52;9.90;;;3.40;;
84023;SDS011;74109;45.636;25.582;2024-03-07T12:56:22;5.80;;;3.20;;
84023;SDS011;74109;45.636;25.582;2024-03-07T12:58:51;7.50;;;3.30;;
84023;SDS011;74109;45.636;25.582;2024-03-07T13:01:52;6.20;;;2.90;;
84023;SDS011;74109;45.636;25.582;2024-03-07T13:04:22;8.20;;;3.50;;
84023;SDS011;74109;45.636;25.582;2024-03-07T13:06:53;6.50;;;3.10;;
84023;SDS011;74109;45.636;25.582;2024-03-07T13:09:22;7.00;;;3.10;;
84023;SDS011;74109;45.636;25.582;2024-03-07T13:12:09;7.70;;;3.30;;
84023;SDS011;74109;45.636;25.582;2024-03-07T13:14:40;5.20;;;3.20;;
84023;SDS011;74109;45.636;25.582;2024-03-07T13:17:47;7.10;;;2.80;;
84023;SDS011;74109;45.636;25.582;2024-03-07T13:20:22;4.50;;;2.20;;
84023;SDS011;74109;45.636;25.582;2024-03-07T13:22:54;4.00;;;2.00;;
84023;SDS011;74109;45.636;25.582;2024-03-07T13:25:29;5.90;;;2.70;;
84023;SDS011;74109;45.636;25.582;2024-03-07T13:28:09;5.20;;;2.90;;
84023;SDS011;74109;45.636;25.582;2024-03-07T13:30:47;6.30;;;2.80;;
84023;SDS011;74109;45.636;25.582;2024-03-07T13:33:18;6.00;;;2.60;;
84023;SDS011;74109;45.636;25.582;2024-03-07T13:35:49;6.30;;;3.10;;
84023;SDS011;74109;45.636;25.582;2024-03-07T13:40:49;6.40;;;2.50;;
84023;SDS011;74109;45.636;25.582;2024-03-07T13:43:20;5.10;;;2.80;;
84023;SDS011;74109;45.636;25.582;2024-03-07T13:45:53;5.40;;;2.20;;
84023;SDS011;74109;45.636;25.582;2024-03-07T13:48:22;4.40;;;1.80;;
84023;SDS011;74109;45.636;25.582;2024-03-07T13:50:52;6.20;;;2.50;;
84023;SDS011;74109;45.636;25.582;2024-03-07T13:53:27;7.80;;;3.30;;
84023;SDS011;74109;45.636;25.582;2024-03-07T13:59:25;5.70;;;3.00;;
84023;SDS011;74109;45.636;25.582;2024-03-07T14:11:08;5.60;;;2.80;;
84023;SDS011;74109;45.636;25.582;2024-03-07T14:30:54;6.90;;;3.30;;
84023;SDS011;74109;45.636;25.582;2024-03-07T14:33:32;8.10;;;4.40;;
84023;SDS011;74109;45.636;25.582;2024-03-07T14:36:16;6.40;;;3.00;;
84023;SDS011;74109;45.636;25.582;2024-03-07T14:38:55;4.70;;;1.90;;
84023;SDS011;74109;45.636;25.582;2024-03-07T14:42:30;6.90;;;3.40;;
84023;SDS011;74109;45.636;25.582;2024-03-07T14:44:38;8.30;;;3.80;;
84023;SDS011;74109;45.636;25.582;2024-03-07T14:47:09;6.50;;;2.70;;
84023;SDS011;74109;45.636;25.582;2024-03-07T14:49:38;7.00;;;2.90;;
84023;SDS011;74109;45.636;25.582;2024-03-07T14:52:07;7.30;;;2.90;;
84023;SDS011;74109;45.636;25.582;2024-03-07T14:54:39;8.20;;;3.80;;
84023;SDS011;74109;45.636;25.582;2024-03-07T14:57:08;7.80;;;3.60;;
84023;SDS011;74109;45.636;25.582;2024-03-07T14:59:41;6.70;;;3.40;;
84023;SDS011;74109;45.636;25.582;2024-03-07T15:02:11;7.10;;;3.80;;
84023;SDS011;74109;45.636;25.582;2024-03-07T15:04:42;5.80;;;2.50;;
84023;SDS011;74109;45.636;25.582;2024-03-07T15:07:11;7.90;;;4.10;;
84023;SDS011;74109;45.636;25.582;2024-03-07T15:09:39;7.60;;;3.20;;
84023;SDS011;74109;45.636;25.582;2024-03-07T15:12:08;7.10;;;3.30;;
84023;SDS011;74109;45.636;25.582;2024-03-07T15:14:37;11.20;;;5.00;;
84023;SDS011;74109;45.636;25.582;2024-03-07T15:17:08;9.40;;;3.20;;
84023;SDS011;74109;45.636;25.582;2024-03-07T15:19:36;8.40;;;3.10;;
84023;SDS011;74109;45.636;25.582;2024-03-07T15:22:05;7.60;;;4.00;;
84023;SDS011;74109;45.636;25.582;2024-03-07T15:24:34;6.40;;;3.00;;
84023;SDS011;74109;45.636;25.582;2024-03-07T15:27:04;10.10;;;4.20;;
84023;SDS011;74109;45.636;25.582;2024-03-07T15:29:33;10.10;;;5.10;;
84023;SDS011;74109;45.636;25.582;2024-03-07T15:32:02;10.10;;;3.40;;
84023;SDS011;74109;45.636;25.582;2024-03-07T15:34:30;8.00;;;3.10;;
84023;SDS011;74109;45.636;25.582;2024-03-07T15:37:05;8.10;;;3.80;;
84023;SDS011;74109;45.636;25.582;2024-03-07T15:39:35;10.30;;;3.40;;
84023;SDS011;74109;45.636;25.582;2024-03-07T15:42:07;9.00;;;4.40;;
84023;SDS011;74109;45.636;25.582;2024-03-07T15:44:39;7.70;;;3.60;;
84023;SDS011;74109;45.636;25.582;2024-03-07T15:47:08;7.20;;;3.30;;
84023;SDS011;74109;45.636;25.582;2024-03-07T15:49:37;9.40;;;3.60;;
84023;SDS011;74109;45.636;25.582;2024-03-07T15:52:08;7.50;;;4.50;;
84023;SDS011;74109;45.636;25.582;2024-03-07T15:54:37;9.00;;;4.50;;
84023;SDS011;74109;45.636;25.582;2024-03-07T15:57:05;7.90;;;3.80;;
84023;SDS011;74109;45.636;25.582;2024-03-07T15:59:34;10.70;;;4.70;;
84023;SDS011;74109;45.636;25.582;2024-03-07T16:02:03;14.80;;;4.10;;
84023;SDS011;74109;45.636;25.582;2024-03-07T16:04:32;8.20;;;3.40;;
84023;SDS011;74109;45.636;25.582;2024-03-07T16:07:01;8.10;;;2.90;;
84023;SDS011;74109;45.636;25.582;2024-03-07T16:09:31;7.30;;;2.70;;
84023;SDS011;74109;45.636;25.582;2024-03-07T16:11:59;9.90;;;4.20;;
84023;SDS011;74109;45.636;25.582;2024-03-07T16:14:29;7.70;;;4.30;;
84023;SDS011;74109;45.636;25.582;2024-03-07T16:16:58;8.70;;;4.10;;
84023;SDS011;74109;45.636;25.582;2024-03-07T16:19:26;7.30;;;3.90;;
84023;SDS011;74109;45.636;25.582;2024-03-07T16:21:55;9.10;;;4.50;;
84023;SDS011;74109;45.636;25.582;2024-03-07T16:24:23;7.90;;;3.70;;
84023;SDS011;74109;45.636;25.582;2024-03-07T16:26:51;7.00;;;3.20;;
84023;SDS011;74109;45.636;25.582;2024-03-07T16:29:20;6.80;;;3.20;;
84023;SDS011;74109;45.636;25.582;2024-03-07T16:31:48;7.90;;;4.30;;
84023;SDS011;74109;45.636;25.582;2024-03-07T16:34:18;8.70;;;3.70;;
84023;SDS011;74109;45.636;25.582;2024-03-07T16:36:46;11.40;;;5.00;;
84023;SDS011;74109;45.636;25.582;2024-03-07T16:39:15;8.30;;;3.70;;
84023;SDS011;74109;45.636;25.582;2024-03-07T16:41:43;8.60;;;4.40;;
84023;SDS011;74109;45.636;25.582;2024-03-07T16:44:12;7.70;;;3.50;;
84023;SDS011;74109;45.636;25.582;2024-03-07T16:46:41;11.00;;;4.40;;
84023;SDS011;74109;45.636;25.582;2024-03-07T16:49:09;12.50;;;4.20;;
84023;SDS011;74109;45.636;25.582;2024-03-07T16:51:38;10.00;;;3.30;;
84023;SDS011;74109;45.636;25.582;2024-03-07T16:54:07;8.80;;;4.40;;
84023;SDS011;74109;45.636;25.582;2024-03-07T16:56:37;8.60;;;4.10;;
84023;SDS011;74109;45.636;25.582;2024-03-07T16:59:09;7.80;;;3.40;;
84023;SDS011;74109;45.636;25.582;2024-03-07T17:01:38;8.40;;;4.40;;
84023;SDS011;74109;45.636;25.582;2024-03-07T17:04:12;14.10;;;5.10;;
84023;SDS011;74109;45.636;25.582;2024-03-07T17:06:42;6.10;;;3.00;;